Time;durP1;ratioP1;P1;durP2;ratioP2;P2;SDS_P1;SDS_P2;PMS_P1;PMS_P2;Temp;Humidity;BMP_temperature;BMP_pressure;BME280_temperature;BME280_humidity;BME280_pressure;Samples;Min_cycle;Max_cycle;Signal;HPM_P1;HPM_P2
2022/05/04 00:01:46;;;;;;;9.45;1.70;;;10.90;95.20;;;;;;5132405;27;20051;-74
2022/05/04 00:04:12;;;;;;;14.45;2.08;;;10.70;95.60;;;;;;5114871;28;20126;-73
2022/05/04 00:06:38;;;;;;;12.88;1.92;;;10.60;95.50;;;;;;5149204;27;20047;-74
2022/05/04 00:09:03;;;;;;;12.95;2.10;;;10.70;95.10;;;;;;5115929;28;20043;-74
2022/05/04 00:11:29;;;;;;;5.90;1.52;;;10.70;95.10;;;;;;5114033;28;20055;-74
2022/05/04 00:13:55;;;;;;;8.07;2.03;;;10.80;95.30;;;;;;5149445;27;20075;-74
2022/05/04 00:16:21;;;;;;;12.45;2.47;;;10.90;95.00;;;;;;5148778;27;20486;-74
2022/05/04 00:18:47;;;;;;;8.75;1.70;;;11.00;95.10;;;;;;5149205;27;20040;-73
2022/05/04 00:21:13;;;;;;;6.97;2.00;;;11.00;95.60;;;;;;5148978;27;20047;-73
2022/05/04 00:23:38;;;;;;;8.55;1.58;;;11.00;95.40;;;;;;5148730;27;20049;-75
2022/05/04 00:26:04;;;;;;;5.43;1.50;;;11.00;95.70;;;;;;5148700;27;20047;-74
2022/05/04 00:28:30;;;;;;;6.05;1.60;;;10.90;95.40;;;;;;5148568;27;20044;-74
2022/05/04 00:30:55;;;;;;;11.68;1.73;;;10.90;95.60;;;;;;5148914;27;20097;-73
2022/05/04 00:33:21;;;;;;;8.90;1.70;;;10.90;95.60;;;;;;5131469;27;20148;-73
2022/05/04 00:35:47;;;;;;;7.63;2.03;;;10.90;95.80;;;;;;5148542;27;20039;-73
2022/05/04 00:38:12;;;;;;;10.00;1.67;;;10.90;95.70;;;;;;5148796;27;20044;-74
2022/05/04 00:40:38;;;;;;;8.02;2.10;;;10.90;96.00;;;;;;5148278;27;20055;-79
2022/05/04 00:43:04;;;;;;;8.20;2.03;;;11.00;96.00;;;;;;5148626;27;20072;-74
2022/05/04 00:45:31;;;;;;;11.82;1.70;;;11.00;95.90;;;;;;5148770;27;20056;-74
2022/05/04 00:47:56;;;;;;;9.23;2.03;;;11.00;95.70;;;;;;5148740;27;20090;-74
2022/05/04 00:50:22;;;;;;;7.85;1.50;;;10.90;96.10;;;;;;5148055;27;20067;-74
2022/05/04 00:52:50;;;;;;;9.38;1.80;;;10.80;96.30;;;;;;5147951;27;20062;-73
2022/05/04 00:55:18;;;;;;;9.07;1.77;;;10.80;96.20;;;;;;5148183;27;20079;-74
2022/05/04 01:00:29;;;;;;;10.48;1.58;;;10.80;96.00;;;;;;5148342;27;20095;-74
2022/05/04 01:02:55;;;;;;;7.88;2.00;;;10.80;96.00;;;;;;5148295;27;20089;-74
2022/05/04 01:05:21;;;;;;;10.85;2.40;;;10.80;96.10;;;;;;5113894;28;20097;-73
2022/05/04 01:07:47;;;;;;;10.02;2.08;;;10.70;95.70;;;;;;5147976;27;20439;-74
2022/05/04 01:10:14;;;;;;;7.63;1.95;;;10.80;95.50;;;;;;5113741;28;20482;-74
2022/05/04 01:12:48;;;;;;;11.77;2.17;;;10.90;96.10;;;;;;5147535;27;20047;-74
2022/05/04 01:15:14;;;;;;;9.70;1.60;;;10.90;95.50;;;;;;5113917;28;20112;-74
2022/05/04 01:17:40;;;;;;;8.98;1.70;;;10.90;95.40;;;;;;5113350;28;20055;-73
2022/05/04 01:20:08;;;;;;;8.10;1.50;;;10.90;95.60;;;;;;5147792;27;20043;-74
2022/05/04 01:22:34;;;;;;;9.50;2.40;;;10.80;96.10;;;;;;5113546;28;20483;-74
2022/05/04 01:25:00;;;;;;;4.13;1.52;;;10.80;95.90;;;;;;5130633;27;20043;-74
2022/05/04 01:27:26;;;;;;;8.73;1.70;;;10.70;96.00;;;;;;5147848;27;20054;-73
2022/05/04 01:29:52;;;;;;;9.60;1.77;;;10.70;95.90;;;;;;5147696;27;20055;-73
2022/05/04 01:32:17;;;;;;;8.45;1.73;;;10.70;96.10;;;;;;5147864;27;20050;-73
2022/05/04 01:34:43;;;;;;;8.75;2.00;;;10.80;96.30;;;;;;5147661;27;20224;-74
2022/05/04 01:37:09;;;;;;;6.82;1.63;;;10.90;95.80;;;;;;5146869;27;20043;-74
2022/05/04 01:39:35;;;;;;;7.35;1.48;;;10.90;96.10;;;;;;5147458;27;20050;-74
2022/05/04 01:42:05;;;;;;;8.23;1.73;;;10.90;96.30;;;;;;5130094;27;20092;-74
2022/05/04 01:44:32;;;;;;;12.60;1.60;;;10.80;96.40;;;;;;5147546;27;20053;-73
2022/05/04 01:46:58;;;;;;;7.63;1.52;;;10.80;96.30;;;;;;5113006;28;20127;-73
2022/05/04 01:49:23;;;;;;;9.88;1.80;;;10.70;96.30;;;;;;5147392;27;20048;-73
2022/05/04 01:51:49;;;;;;;8.07;1.77;;;10.70;96.40;;;;;;5146814;27;20055;-73
2022/05/04 01:54:15;;;;;;;12.57;1.98;;;10.70;96.30;;;;;;5147634;27;20056;-73
2022/05/04 01:56:41;;;;;;;8.43;2.00;;;10.70;96.40;;;;;;5147289;27;20054;-74
2022/05/04 01:59:07;;;;;;;7.75;1.80;;;10.60;96.50;;;;;;5130336;27;20043;-75
2022/05/04 02:01:32;;;;;;;9.43;1.85;;;10.70;96.50;;;;;;5147156;27;20047;-73
2022/05/04 02:03:59;;;;;;;6.18;1.50;;;10.60;96.40;;;;;;5147341;27;20039;-73
2022/05/04 02:06:25;;;;;;;9.23;1.88;;;10.60;96.70;;;;;;5112989;28;20063;-74
2022/05/04 02:08:51;;;;;;;8.70;1.95;;;10.60;96.90;;;;;;5113925;28;20134;-74
2022/05/04 02:11:17;;;;;;;8.85;1.88;;;10.70;96.50;;;;;;5146650;27;20088;-74
2022/05/04 02:13:44;;;;;;;5.72;1.67;;;10.60;96.80;;;;;;5112754;28;20052;-74
2022/05/04 02:16:09;;;;;;;11.63;2.10;;;10.60;96.50;;;;;;5112981;28;20055;-73
2022/05/04 02:18:35;;;;;;;11.18;2.22;;;10.60;96.70;;;;;;5147039;27;20044;-74
2022/05/04 02:21:01;;;;;;;11.88;1.88;;;10.70;96.70;;;;;;5163913;27;20505;-73
2022/05/04 02:23:27;;;;;;;10.18;1.90;;;10.70;96.80;;;;;;5147040;27;20132;-73
2022/05/04 02:25:52;;;;;;;8.45;1.75;;;10.70;96.70;;;;;;5147258;27;20048;-74
2022/05/04 02:28:18;;;;;;;6.43;1.90;;;10.70;96.50;;;;;;5147398;27;20432;-74
2022/05/04 02:30:44;;;;;;;6.00;1.63;;;10.70;96.80;;;;;;5112355;28;20039;-73
2022/05/04 02:33:11;;;;;;;6.85;1.80;;;10.70;96.70;;;;;;5147090;27;20054;-73
2022/05/04 02:38:21;;;;;;;10.85;1.85;;;10.70;96.60;;;;;;5147237;27;20062;-74
2022/05/04 02:40:48;;;;;;;11.32;1.65;;;10.70;96.50;;;;;;5146515;27;20402;-74
2022/05/04 02:43:14;;;;;;;5.93;1.20;;;10.70;96.60;;;;;;5112587;28;20052;-74
2022/05/04 02:45:40;;;;;;;6.03;1.88;;;10.60;96.90;;;;;;5147056;27;20488;-74
2022/05/04 02:48:07;;;;;;;8.35;1.83;;;10.60;96.80;;;;;;5113323;28;20066;-74
2022/05/04 02:50:33;;;;;;;10.52;2.17;;;10.50;96.80;;;;;;5133623;27;20113;-73
2022/05/04 02:52:59;;;;;;;8.98;2.08;;;10.50;96.70;;;;;;5116063;28;20094;-73
2022/05/04 02:55:25;;;;;;;8.60;1.73;;;10.50;96.70;;;;;;5150775;27;20078;-73
2022/05/04 02:57:51;;;;;;;9.18;2.10;;;10.40;96.80;;;;;;5133349;27;20047;-73
2022/05/04 03:00:17;;;;;;;7.68;1.77;;;10.50;97.00;;;;;;5116049;28;20039;-73
2022/05/04 03:02:43;;;;;;;6.68;2.00;;;10.60;97.00;;;;;;5150338;27;20126;-74
2022/05/04 03:05:11;;;;;;;11.38;1.80;;;10.50;97.00;;;;;;5150753;27;20517;-73
2022/05/04 03:07:37;;;;;;;8.38;2.20;;;10.50;97.00;;;;;;5150266;27;20048;-73
2022/05/04 03:10:03;;;;;;;6.97;1.75;;;10.50;97.10;;;;;;5150869;27;20051;-73
2022/05/04 03:12:29;;;;;;;8.50;1.95;;;10.50;97.10;;;;;;5115614;28;20047;-73
2022/05/04 03:14:55;;;;;;;4.93;1.88;;;10.50;97.00;;;;;;5116909;28;20125;-73
2022/05/04 03:17:21;;;;;;;12.93;2.60;;;10.50;97.20;;;;;;5150500;27;20051;-73
2022/05/04 03:19:47;;;;;;;6.57;1.60;;;10.50;96.90;;;;;;5115838;28;20417;-73
2022/05/04 03:22:13;;;;;;;8.70;1.70;;;10.50;96.90;;;;;;5132993;27;20479;-73
2022/05/04 03:24:39;;;;;;;8.15;2.00;;;10.60;97.00;;;;;;5135508;27;20051;-76
2022/05/04 03:27:06;;;;;;;6.93;2.20;;;10.50;97.10;;;;;;5134526;27;20043;-73
2022/05/04 03:29:39;;;;;;;9.52;1.85;;;10.50;97.10;;;;;;5119104;27;20047;-74
2022/05/04 03:32:06;;;;;;;8.73;2.08;;;10.50;96.90;;;;;;5136202;27;20051;-74
2022/05/04 03:34:31;;;;;;;8.68;1.75;;;10.50;96.90;;;;;;5136476;27;20096;-73
2022/05/04 03:37:00;;;;;;;10.55;1.63;;;10.40;96.60;;;;;;5136022;27;20042;-73
2022/05/04 03:39:27;;;;;;;9.20;2.53;;;10.40;96.90;;;;;;5135978;27;20122;-73
2022/05/04 03:41:53;;;;;;;10.25;2.40;;;10.50;96.70;;;;;;5135478;27;20047;-73
2022/05/04 03:44:19;;;;;;;6.85;1.67;;;10.40;96.90;;;;;;5135813;27;20096;-73
2022/05/04 03:46:51;;;;;;;12.75;2.10;;;10.30;96.70;;;;;;5170383;27;20043;-73
2022/05/04 03:49:18;;;;;;;7.72;1.58;;;10.30;96.90;;;;;;5135876;27;20080;-73
2022/05/04 03:51:45;;;;;;;9.40;2.08;;;10.30;97.00;;;;;;5135477;27;20105;-73
2022/05/04 03:54:11;;;;;;;12.82;2.42;;;10.20;97.10;;;;;;5135726;27;20124;-73
2022/05/04 03:56:38;;;;;;;5.95;1.48;;;10.30;97.00;;;;;;5118483;27;20092;-73
2022/05/04 03:59:04;;;;;;;8.95;1.75;;;10.40;96.90;;;;;;5134945;27;20055;-73
2022/05/04 04:01:30;;;;;;;10.43;1.98;;;10.40;96.90;;;;;;5135430;27;20405;-73
2022/05/04 04:03:56;;;;;;;7.72;1.75;;;10.40;96.90;;;;;;5135560;27;20127;-73
2022/05/04 04:06:22;;;;;;;12.45;1.88;;;10.40;96.60;;;;;;5135855;27;20133;-73
2022/05/04 04:08:51;;;;;;;6.38;1.70;;;10.50;96.70;;;;;;5135643;27;20085;-74
2022/05/04 04:11:18;;;;;;;7.93;1.60;;;10.50;96.40;;;;;;5134503;27;20051;-73
2022/05/04 04:13:44;;;;;;;9.65;1.75;;;10.50;96.80;;;;;;5135481;27;20477;-73
2022/05/04 04:16:10;;;;;;;11.40;1.80;;;10.40;96.30;;;;;;5135260;27;20039;-73
2022/05/04 04:18:35;;;;;;;8.35;1.80;;;10.40;96.00;;;;;;5135504;27;20122;-73
2022/05/04 04:23:45;;;;;;;8.82;1.67;;;10.50;96.60;;;;;;5135147;27;20108;-74
2022/05/04 04:26:11;;;;;;;4.82;1.45;;;10.50;96.60;;;;;;5134913;27;20054;-74
2022/05/04 04:28:38;;;;;;;8.50;1.63;;;10.50;96.60;;;;;;5135096;27;20459;-73
2022/05/04 04:31:06;;;;;;;7.15;1.60;;;10.40;96.30;;;;;;5134994;27;20055;-73
2022/05/04 04:33:31;;;;;;;7.43;1.50;;;10.40;96.70;;;;;;5134954;27;20512;-73
2022/05/04 04:35:58;;;;;;;6.13;1.55;;;10.50;96.40;;;;;;5117930;27;20054;-73
2022/05/04 04:38:24;;;;;;;9.13;1.45;;;10.60;95.40;;;;;;5117472;27;20054;-73
2022/05/04 04:40:50;;;;;;;6.47;1.40;;;10.40;94.30;;;;;;5134665;27;20066;-75
2022/05/04 04:43:17;;;;;;;6.10;1.50;;;10.40;95.10;;;;;;5168841;27;20051;-73
2022/05/04 04:45:50;;;;;;;7.30;1.65;;;10.60;95.20;;;;;;5134787;27;20069;-73
2022/05/04 04:48:16;;;;;;;7.80;1.73;;;10.70;95.80;;;;;;5134919;27;20051;-73
2022/05/04 04:50:46;;;;;;;7.97;1.55;;;10.80;95.80;;;;;;5169037;27;20100;-73
2022/05/04 04:53:12;;;;;;;11.10;1.60;;;10.70;95.90;;;;;;5134210;27;20061;-73
2022/05/04 04:55:41;;;;;;;10.35;1.70;;;10.70;95.50;;;;;;5134805;27;20126;-74
2022/05/04 04:58:06;;;;;;;5.80;1.48;;;10.80;96.10;;;;;;5134840;27;20104;-74
2022/05/04 05:00:32;;;;;;;10.50;1.92;;;10.80;95.80;;;;;;5134370;27;20490;-73
2022/05/04 05:02:58;;;;;;;7.45;2.10;;;10.80;95.80;;;;;;5134580;27;20083;-73
2022/05/04 05:05:24;;;;;;;9.00;1.58;;;10.80;96.00;;;;;;5134436;27;20051;-73
2022/05/04 05:07:49;;;;;;;10.43;2.78;;;10.90;96.60;;;;;;5135147;27;20129;-73
2022/05/04 05:10:15;;;;;;;10.85;1.63;;;10.90;95.90;;;;;;5134020;27;20043;-73
2022/05/04 05:12:40;;;;;;;6.30;1.63;;;10.90;95.40;;;;;;5132853;27;20061;-73
2022/05/04 05:17:51;;;;;;;8.90;1.90;;;10.90;94.70;;;;;;5133975;27;20179;-73
2022/05/04 05:20:17;;;;;;;10.98;1.85;;;10.90;94.40;;;;;;5133771;27;20130;-73
2022/05/04 05:22:43;;;;;;;10.93;1.42;;;10.80;94.70;;;;;;5134681;27;20051;-73
2022/05/04 05:25:09;;;;;;;6.78;1.60;;;10.90;94.40;;;;;;5133934;27;20058;-74
2022/05/04 05:27:35;;;;;;;5.05;1.33;;;11.00;95.10;;;;;;5133911;27;20104;-73
2022/05/04 05:30:01;;;;;;;9.77;2.08;;;11.00;95.50;;;;;;5133929;27;20047;-73
2022/05/04 05:32:27;;;;;;;4.28;1.40;;;11.10;95.10;;;;;;5116913;27;20536;-73
2022/05/04 05:34:53;;;;;;;8.15;1.40;;;11.10;95.20;;;;;;5116486;27;20047;-74
2022/05/04 05:37:20;;;;;;;9.63;1.60;;;11.20;95.30;;;;;;5133953;27;20057;-75
2022/05/04 05:39:46;;;;;;;7.18;1.38;;;11.10;94.70;;;;;;5133936;27;20583;-73
2022/05/04 05:42:12;;;;;;;7.18;1.60;;;11.20;94.80;;;;;;5133331;27;20096;-73
2022/05/04 05:44:38;;;;;;;9.40;1.77;;;11.30;95.10;;;;;;5133904;27;20051;-73
2022/05/04 05:47:04;;;;;;;6.10;1.65;;;11.30;94.20;;;;;;5133732;27;20051;-74
2022/05/04 05:49:30;;;;;;;7.43;1.42;;;11.30;94.20;;;;;;5133392;27;20047;-73
2022/05/04 05:51:56;;;;;;;8.45;1.73;;;11.30;94.30;;;;;;5133076;27;20508;-74
2022/05/04 05:54:22;;;;;;;8.27;1.60;;;11.30;94.10;;;;;;5133801;27;20055;-73
2022/05/04 05:56:47;;;;;;;5.57;1.60;;;11.40;94.00;;;;;;5133532;27;20398;-73
2022/05/04 05:59:13;;;;;;;9.25;1.80;;;11.50;94.00;;;;;;5133630;27;20043;-73
2022/05/04 06:01:39;;;;;;;8.27;1.40;;;11.60;94.10;;;;;;5133523;27;20115;-73
2022/05/04 06:04:08;;;;;;;8.07;1.42;;;11.60;94.10;;;;;;5133362;27;20103;-74
2022/05/04 06:06:33;;;;;;;10.50;1.48;;;11.60;93.80;;;;;;5133648;28;20526;-73
2022/05/04 06:08:59;;;;;;;5.95;1.30;;;11.50;93.50;;;;;;5133487;28;20047;-73
2022/05/04 06:11:25;;;;;;;8.93;1.60;;;11.50;93.60;;;;;;5133033;28;20122;-74
2022/05/04 06:13:52;;;;;;;6.80;1.30;;;11.60;93.40;;;;;;5133245;27;20042;-73
2022/05/04 06:16:18;;;;;;;6.82;1.30;;;11.70;93.30;;;;;;5133461;28;20051;-73
2022/05/04 06:18:44;;;;;;;6.85;1.40;;;11.80;93.40;;;;;;5133078;28;20051;-74
2022/05/04 06:21:10;;;;;;;8.20;1.42;;;11.80;93.30;;;;;;5133315;27;20099;-73
2022/05/04 06:23:36;;;;;;;11.02;1.60;;;11.90;92.90;;;;;;5135901;27;20043;-73
2022/05/04 06:26:02;;;;;;;4.80;1.15;;;11.90;93.50;;;;;;5137638;27;20043;-74
2022/05/04 06:28:29;;;;;;;9.63;1.90;;;11.80;93.20;;;;;;5137399;27;20367;-73
2022/05/04 06:36:23;;;;;;;16.60;1.83;;;11.60;93.30;;;;;;5137338;27;20058;-73
2022/05/04 06:38:49;;;;;;;9.50;1.80;;;11.50;93.30;;;;;;5138293;27;20043;-73
2022/05/04 06:41:14;;;;;;;8.20;1.95;;;11.20;93.10;;;;;;5136575;27;20096;-73
2022/05/04 06:43:41;;;;;;;8.77;1.45;;;11.40;93.20;;;;;;5136920;27;20118;-73
2022/05/04 06:46:07;;;;;;;5.22;1.50;;;11.50;93.30;;;;;;5137702;27;20116;-73
2022/05/04 06:48:32;;;;;;;10.77;1.58;;;11.60;93.30;;;;;;5119880;27;20055;-73
2022/05/04 06:50:58;;;;;;;8.75;1.77;;;11.60;93.40;;;;;;5136939;27;20043;-73
2022/05/04 06:53:24;;;;;;;13.77;1.52;;;11.70;93.40;;;;;;5136449;27;20554;-73
2022/05/04 06:55:49;;;;;;;6.97;1.67;;;11.60;93.20;;;;;;5119721;27;20086;-73
2022/05/04 06:58:16;;;;;;;5.90;1.40;;;11.40;93.00;;;;;;5171319;27;20058;-83
2022/05/04 07:00:41;;;;;;;9.82;1.58;;;11.30;92.90;;;;;;5136854;27;20047;-77
2022/05/04 07:03:07;;;;;;;9.50;1.48;;;11.40;92.80;;;;;;5136836;27;20538;-76
2022/05/04 07:05:33;;;;;;;7.75;1.67;;;11.50;92.80;;;;;;5136682;27;20039;-76
2022/05/04 07:07:59;;;;;;;8.48;1.15;;;11.60;92.90;;;;;;5136695;27;20092;-74
2022/05/04 07:10:24;;;;;;;7.18;1.70;;;11.60;92.40;;;;;;5119305;27;20051;-74
2022/05/04 07:12:50;;;;;;;11.18;1.85;;;11.70;92.90;;;;;;5136134;27;20099;-76
2022/05/04 07:15:16;;;;;;;6.10;1.23;;;11.80;92.80;;;;;;5136318;27;20130;-77
2022/05/04 07:17:43;;;;;;;8.57;1.33;;;11.70;92.80;;;;;;5136749;27;20051;-77
2022/05/04 07:20:09;;;;;;;6.07;1.48;;;11.70;92.70;;;;;;5119461;27;20070;-77
2022/05/04 07:22:36;;;;;;;8.27;1.30;;;11.50;92.70;;;;;;5136361;27;20046;-76
2022/05/04 07:25:02;;;;;;;8.18;1.63;;;11.50;92.70;;;;;;5136346;27;20052;-76
2022/05/04 07:27:27;;;;;;;7.90;1.40;;;11.70;92.90;;;;;;5136128;27;20083;-76
2022/05/04 07:29:53;;;;;;;8.55;1.67;;;11.60;93.10;;;;;;5171093;27;20082;-76
2022/05/04 07:32:19;;;;;;;10.50;1.30;;;11.70;92.80;;;;;;5136150;27;20043;-77
2022/05/04 07:34:45;;;;;;;8.00;1.95;;;11.80;92.90;;;;;;5135442;27;20039;-76
2022/05/04 07:37:10;;;;;;;5.72;1.80;;;11.70;92.40;;;;;;5136323;27;20466;-77
2022/05/04 07:42:21;;;;;;;6.05;1.67;;;11.40;92.50;;;;;;5135902;27;20062;-77
2022/05/04 07:44:49;;;;;;;8.82;1.50;;;11.50;92.80;;;;;;5136924;27;20051;-77
2022/05/04 07:47:15;;;;;;;13.02;1.75;;;11.70;92.80;;;;;;5136246;27;20043;-80
2022/05/04 07:49:40;;;;;;;7.38;1.33;;;11.70;93.00;;;;;;5120817;27;20051;-82
2022/05/04 07:52:06;;;;;;;8.68;1.75;;;11.60;93.10;;;;;;5135267;27;20055;-82
2022/05/04 07:54:32;;;;;;;7.85;1.67;;;11.80;93.00;;;;;;5118811;27;20100;-82
2022/05/04 07:56:58;;;;;;;4.95;1.38;;;12.00;93.30;;;;;;5135877;27;20125;-82
2022/05/04 07:59:23;;;;;;;7.13;1.55;;;12.20;93.20;;;;;;5135626;27;20043;-83
2022/05/04 08:04:34;;;;;;;11.32;1.25;;;12.40;92.80;;;;;;5138656;27;20049;-79
2022/05/04 08:07:01;;;;;;;10.45;1.60;;;12.40;92.90;;;;;;5136128;27;20054;-84
2022/05/04 08:09:26;;;;;;;7.93;1.58;;;11.80;92.50;;;;;;5118154;27;20047;-83
2022/05/04 08:11:52;;;;;;;9.38;1.63;;;11.70;92.80;;;;;;5117659;27;20096;-82
2022/05/04 08:14:18;;;;;;;8.30;1.75;;;11.90;92.80;;;;;;5101317;27;20412;-83
2022/05/04 08:16:44;;;;;;;11.25;1.80;;;11.90;92.70;;;;;;5135267;27;20529;-83
2022/05/04 08:19:10;;;;;;;8.07;1.80;;;12.00;92.60;;;;;;5135353;27;20040;-83
2022/05/04 08:21:37;;;;;;;7.20;1.58;;;11.90;93.00;;;;;;5135411;27;20043;-83
2022/05/04 08:24:03;;;;;;;10.85;1.60;;;11.90;92.70;;;;;;5135270;27;20125;-83
2022/05/04 08:26:29;;;;;;;7.28;1.13;;;11.90;92.70;;;;;;5135278;27;20051;-83
2022/05/04 08:28:55;;;;;;;8.80;1.38;;;12.10;92.60;;;;;;5117967;27;20066;-82
2022/05/04 08:31:24;;;;;;;9.23;1.75;;;12.40;92.70;;;;;;5134802;27;20087;-81
2022/05/04 08:33:50;;;;;;;7.63;1.42;;;12.40;92.70;;;;;;5134828;27;20047;-81
2022/05/04 08:36:16;;;;;;;8.85;1.60;;;12.40;92.60;;;;;;5134722;27;20039;-82
2022/05/04 08:38:43;;;;;;;6.97;1.67;;;12.40;92.40;;;;;;5134893;27;20047;-82
2022/05/04 08:41:09;;;;;;;6.55;1.58;;;12.20;93.00;;;;;;5134329;27;20054;-81
2022/05/04 08:43:39;;;;;;;8.75;1.52;;;12.20;92.60;;;;;;5135956;27;20045;-81
2022/05/04 08:46:05;;;;;;;12.93;1.70;;;12.40;92.50;;;;;;5117622;27;20047;-77
2022/05/04 08:48:32;;;;;;;8.13;1.63;;;12.60;92.60;;;;;;5134995;27;20130;-78
2022/05/04 08:51:04;;;;;;;7.85;1.60;;;12.90;93.10;;;;;;5134146;27;20138;-78
2022/05/04 08:53:31;;;;;;;7.55;1.58;;;13.00;92.60;;;;;;5134845;27;20066;-78
2022/05/04 08:55:58;;;;;;;8.98;1.60;;;13.00;92.30;;;;;;5135504;27;20098;-78
2022/05/04 08:58:25;;;;;;;6.13;1.70;;;13.00;92.20;;;;;;5134463;27;20053;-78
2022/05/04 09:00:51;;;;;;;9.65;1.50;;;12.70;92.00;;;;;;5134657;27;20046;-78
2022/05/04 09:03:18;;;;;;;6.75;1.40;;;12.90;92.30;;;;;;5117213;27;20099;-79
2022/05/04 09:05:48;;;;;;;10.82;2.28;;;13.30;92.40;;;;;;5134581;27;20051;-76
2022/05/04 09:08:15;;;;;;;8.63;2.03;;;13.40;92.30;;;;;;5168686;27;20134;-76
2022/05/04 09:10:44;;;;;;;7.47;1.67;;;13.40;92.10;;;;;;5134201;27;20046;-76
2022/05/04 09:13:10;;;;;;;9.75;1.88;;;13.40;92.40;;;;;;5133647;27;20047;-77
2022/05/04 09:15:40;;;;;;;10.13;2.92;;;13.40;92.10;;;;;;5134357;27;20478;-78
2022/05/04 09:18:09;;;;;;;8.48;1.77;;;13.40;92.20;;;;;;5134037;27;20105;-77
2022/05/04 09:20:49;;;;;;;12.38;1.90;;;13.20;92.40;;;;;;5134107;27;20047;-77
2022/05/04 09:23:18;;;;;;;9.35;2.22;;;12.50;92.70;;;;;;5134160;27;20066;-77
2022/05/04 09:25:43;;;;;;;8.07;1.75;;;12.10;92.70;;;;;;5116819;27;20134;-77
2022/05/04 09:28:14;;;;;;;10.57;2.10;;;11.80;92.50;;;;;;5133852;27;20122;-82
2022/05/04 09:30:45;;;;;;;7.88;1.65;;;11.40;92.60;;;;;;5168287;27;20367;-82
2022/05/04 09:33:12;;;;;;;18.50;2.15;;;11.70;93.00;;;;;;5133722;27;20193;-82
2022/05/04 09:35:41;;;;;;;12.85;2.13;;;11.80;93.30;;;;;;5134113;27;20078;-82
2022/05/04 09:46:48;;;;;;;7.07;1.65;;;12.60;92.40;;;;;;5134033;27;20050;-80
2022/05/04 09:49:22;;;;;;;10.45;1.88;;;12.30;92.70;;;;;;5133484;27;20057;-80
2022/05/04 09:51:52;;;;;;;6.88;1.77;;;12.40;93.20;;;;;;5134579;27;20104;-81
2022/05/04 09:54:27;;;;;;;7.50;1.60;;;12.80;93.20;;;;;;5134162;27;20047;-70
2022/05/04 09:56:59;;;;;;;7.88;1.60;;;12.70;92.70;;;;;;5133405;27;20047;-76
2022/05/04 09:59:26;;;;;;;10.93;2.10;;;12.60;93.00;;;;;;5116101;27;20058;-77
2022/05/04 10:01:53;;;;;;;8.02;1.85;;;12.90;93.00;;;;;;5133305;27;20043;-77
2022/05/04 10:04:26;;;;;;;8.73;1.35;;;13.10;92.70;;;;;;5116345;28;20047;-77
2022/05/04 10:06:53;;;;;;;10.60;1.92;;;13.60;93.00;;;;;;5133643;28;20043;-77
2022/05/04 10:09:20;;;;;;;7.00;2.10;;;14.10;92.60;;;;;;5116296;28;20043;-77
2022/05/04 10:11:47;;;;;;;6.47;1.73;;;14.30;92.30;;;;;;5132858;28;20429;-81
2022/05/04 10:14:15;;;;;;;10.65;2.35;;;14.10;92.40;;;;;;5116191;28;20054;-80
2022/05/04 10:16:51;;;;;;;10.77;2.30;;;14.00;92.50;;;;;;5133479;27;20047;-80
2022/05/04 10:19:47;;;;;;;12.07;2.10;;;13.80;92.60;;;;;;5116555;28;20058;-81
2022/05/04 10:22:21;;;;;;;9.23;1.80;;;13.60;92.60;;;;;;5133373;27;20506;-80
2022/05/04 10:24:47;;;;;;;9.63;1.67;;;13.40;92.80;;;;;;5133196;28;20058;-81
2022/05/04 10:27:18;;;;;;;6.60;1.73;;;13.70;92.40;;;;;;5133630;28;20120;-94
2022/05/04 10:32:43;;;;;;;6.88;1.50;;;13.70;92.80;;;;;;5134886;28;20484;-80
2022/05/04 10:35:32;;;;;;;9.80;1.95;;;13.90;93.00;;;;;;5132987;27;20481;-83
2022/05/04 10:37:58;;;;;;;10.65;1.65;;;13.90;92.70;;;;;;5136611;27;20134;-81
2022/05/04 10:40:27;;;;;;;8.05;1.65;;;13.20;92.40;;;;;;5135114;28;20134;-81
2022/05/04 10:43:02;;;;;;;7.85;1.95;;;13.40;92.10;;;;;;5132874;28;20051;-81
2022/05/04 10:45:35;;;;;;;10.98;1.90;;;13.30;92.80;;;;;;5134023;27;20050;-76
2022/05/04 10:48:25;;;;;;;9.98;1.80;;;13.80;92.70;;;;;;5115944;28;20047;-74
2022/05/04 10:50:53;;;;;;;10.68;1.70;;;14.30;92.60;;;;;;5133407;28;20508;-74
2022/05/04 10:53:25;;;;;;;8.65;1.80;;;14.70;92.10;;;;;;5132433;28;20059;-77
2022/05/04 10:55:54;;;;;;;9.55;2.15;;;15.30;91.90;;;;;;5118979;27;20048;-77
2022/05/04 10:58:59;;;;;;;5.32;1.55;;;15.70;92.00;;;;;;5132990;28;20047;-77
2022/05/04 11:01:36;;;;;;;10.23;1.95;;;15.60;92.30;;;;;;5133097;28;20080;-78
2022/05/04 11:04:13;;;;;;;8.43;1.75;;;15.70;91.70;;;;;;5133122;28;20086;-78
2022/05/04 11:06:50;;;;;;;9.68;2.03;;;16.20;92.00;;;;;;5132833;28;20116;-76
2022/05/04 11:09:21;;;;;;;8.00;1.67;;;16.70;91.90;;;;;;5133248;27;20046;-76
2022/05/04 11:11:49;;;;;;;10.07;2.20;;;16.90;91.70;;;;;;5136013;27;20047;-78
2022/05/04 11:14:16;;;;;;;8.23;2.00;;;16.90;91.60;;;;;;5136620;27;20046;-79
2022/05/04 11:16:43;;;;;;;8.95;2.05;;;16.60;91.00;;;;;;5136765;27;20139;-88
2022/05/04 11:19:11;;;;;;;8.15;2.00;;;16.00;91.40;;;;;;5136655;27;20054;-90
2022/05/04 11:21:37;;;;;;;14.25;2.20;;;15.80;91.10;;;;;;5136558;27;20047;-86
2022/05/04 11:24:06;;;;;;;9.40;1.95;;;15.90;92.00;;;;;;5136546;27;20054;-83
2022/05/04 11:26:41;;;;;;;7.47;1.83;;;16.10;91.60;;;;;;5137015;27;20532;-90
2022/05/04 11:29:26;;;;;;;8.20;2.03;;;15.90;91.70;;;;;;5171704;27;20520;-92
2022/05/04 11:31:57;;;;;;;7.70;2.05;;;15.30;91.40;;;;;;5137166;27;20046;-91
2022/05/04 11:34:23;;;;;;;9.02;1.77;;;15.50;91.70;;;;;;5120172;27;20047;-92
2022/05/04 11:36:51;;;;;;;11.43;1.92;;;16.10;92.00;;;;;;5137430;27;20050;-92
2022/05/04 11:39:18;;;;;;;10.95;1.95;;;16.10;91.50;;;;;;5120275;27;20082;-92
2022/05/04 11:41:50;;;;;;;15.90;2.38;;;16.40;92.00;;;;;;5119327;27;20058;-92
2022/05/04 11:44:18;;;;;;;7.28;1.70;;;16.60;91.30;;;;;;5137367;27;20047;-91
2022/05/04 11:46:55;;;;;;;11.73;1.80;;;16.00;91.00;;;;;;5120145;27;20046;-92
2022/05/04 11:49:24;;;;;;;7.28;1.80;;;15.90;91.50;;;;;;5119703;27;20086;-91
2022/05/04 11:51:51;;;;;;;7.63;1.80;;;15.70;91.10;;;;;;5135707;27;20108;-77
2022/05/04 11:54:17;;;;;;;7.68;2.10;;;15.80;91.60;;;;;;5135624;27;20178;-77
2022/05/04 11:56:43;;;;;;;11.93;1.98;;;16.40;91.40;;;;;;5135940;27;20050;-77
2022/05/04 11:59:09;;;;;;;10.18;1.67;;;17.50;91.80;;;;;;5135510;27;20051;-77
2022/05/04 12:01:35;;;;;;;14.18;2.00;;;18.40;91.30;;;;;;5135820;27;20095;-76
2022/05/04 12:04:03;;;;;;;8.15;1.90;;;18.40;90.70;;;;;;5135738;27;20043;-75
2022/05/04 12:06:30;;;;;;;10.10;2.10;;;18.40;91.20;;;;;;5135722;27;20394;-73
2022/05/04 12:08:56;;;;;;;7.90;1.70;;;18.80;90.60;;;;;;5120031;27;20498;-73
2022/05/04 12:11:24;;;;;;;8.40;2.03;;;18.50;90.70;;;;;;5133145;27;20051;-74
2022/05/04 12:13:51;;;;;;;9.02;2.20;;;18.80;90.90;;;;;;5130225;27;20494;-73
2022/05/04 12:16:17;;;;;;;9.45;2.33;;;18.60;90.80;;;;;;5115184;27;20497;-73
2022/05/04 12:18:42;;;;;;;5.07;1.95;;;18.60;90.60;;;;;;5125204;27;20058;-79
2022/05/04 12:21:14;;;;;;;8.20;2.08;;;19.00;90.60;;;;;;5133665;27;20050;-76
2022/05/04 12:23:45;;;;;;;10.60;2.10;;;19.30;90.70;;;;;;5133715;27;20050;-76
2022/05/04 12:26:12;;;;;;;11.90;1.98;;;18.80;90.40;;;;;;5135294;27;20151;-75
2022/05/04 12:28:40;;;;;;;8.88;2.05;;;18.50;90.20;;;;;;5136175;27;20505;-75
2022/05/04 12:33:51;;;;;;;8.55;2.20;;;18.50;90.20;;;;;;5135039;27;20058;-79
2022/05/04 12:36:19;;;;;;;9.73;2.45;;;18.00;90.20;;;;;;5135034;27;20051;-78
2022/05/04 12:38:49;;;;;;;7.13;2.10;;;18.10;90.20;;;;;;5134720;27;20047;-77
2022/05/04 12:41:25;;;;;;;8.77;2.53;;;18.50;90.50;;;;;;5135220;27;20573;-78
2022/05/04 12:43:51;;;;;;;;;;;18.40;90.20;;;;;;5135529;27;20125;-78
2022/05/04 12:46:19;;;;;;;8.83;2.10;;;18.30;90.20;;;;;;5135048;27;19966;-79
2022/05/04 12:48:49;;;;;;;11.15;2.67;;;18.30;91.10;;;;;;5135044;27;20051;-78
2022/05/04 12:51:17;;;;;;;7.97;2.20;;;18.70;90.30;;;;;;5134112;27;20039;-78
2022/05/04 12:53:49;;;;;;;8.43;2.13;;;18.60;90.50;;;;;;5117877;27;20055;-78
2022/05/04 12:59:01;;;;;;;11.15;2.22;;;19.70;91.00;;;;;;5134551;27;20062;-78
2022/05/04 13:01:30;;;;;;;5.80;2.10;;;19.70;90.20;;;;;;5117690;27;20062;-78
2022/05/04 13:03:59;;;;;;;5.85;2.22;;;19.80;90.50;;;;;;5134467;27;20043;-78
2022/05/04 13:06:25;;;;;;;6.55;2.28;;;19.40;90.30;;;;;;5117333;27;20131;-77
2022/05/04 13:08:51;;;;;;;7.43;1.83;;;19.40;90.30;;;;;;5134202;27;20482;-79
2022/05/04 13:11:18;;;;;;;8.93;2.00;;;19.70;90.20;;;;;;5134145;27;20054;-79
2022/05/04 13:13:44;;;;;;;5.38;2.10;;;19.50;90.00;;;;;;5133626;27;20053;-79
2022/05/04 13:16:10;;;;;;;6.50;1.70;;;19.70;90.10;;;;;;5134353;27;20539;-77
2022/05/04 13:18:36;;;;;;;7.18;2.22;;;20.20;90.20;;;;;;5133974;27;20051;-76
2022/05/04 13:21:03;;;;;;;6.38;2.10;;;20.30;90.10;;;;;;5168919;27;20047;-81
2022/05/04 13:23:29;;;;;;;5.20;1.75;;;20.40;90.40;;;;;;5117039;27;20401;-78
2022/05/04 13:25:55;;;;;;;8.02;2.15;;;20.50;90.20;;;;;;5134009;27;20046;-77